メインページ
METAR-TAF:

METAR-TAF

空港 :

テヘラン, イラン

メヘラーバード国際空港

緯度: 35-41N, 経度: 051-21E, 海抜: 1204m

現時点の気象観測

当レポートは43分前の00:30(UTC)に作成
無風
気温 19°C
湿度 19%
気圧 1014 hPa
視程10km以上
1,500メートル以下は雲なし、積乱雲なし

METAR: OIII 230030Z 00000KT CAVOK 19/M05 Q1014 A2995 NOSIG

時間: 05:43 (01:13 UTC)

予報

当レポートは2時間13分前の23:00(UTC)に作成
予報は23日の 00時(UTC)から 24日の 06時(UTC)まで有効
北西の風 10kt
視程10km以上
1,500メートル以下は雲なし、積乱雲なし
23日の 09時(UTC)から 23日の 15時(UTC)まで一時的に
東/北東の風 10kt
視程: 8000m
高度3500ftの雲はほとんどない
高度10000ftの雲は散在している

TAF: OIII 222300Z 2300/2406 32005MPS CAVOK TEMPO 2309/2315 06005MPS 8000 FEW035 SCT100

4,000以上の空港の気象観測と天気予報(METAR報とTAF報)

利用可能な観測所は地図上に黄色い丸と赤い丸で示す。

丸の上にカーソルを重ねると観測所名を参照できる。

次にクリックすると気象観測と天気予報を参照できる。

マップの切り替え:黒色「×」印の緑ボタンをクリックして拡大、「-」印の緑ボタンをクリックして縮小、緑色の三角印をクリックして隣りの地図に切り替え


METAR-TAF: